sensor_id;sensor_type;location;lat;lon;timestamp;pressure;altitude;pressure_sealevel;temperature;humidity
70909;BME280;58554;52.006;5.926;2022-09-20T00:01:25;101377.34;;;14.40;60.06
70909;BME280;58554;52.006;5.926;2022-09-20T00:03:57;101373.81;;;14.39;60.10
70909;BME280;58554;52.006;5.926;2022-09-20T00:06:28;101374.78;;;14.38;60.20
70909;BME280;58554;52.006;5.926;2022-09-20T00:08:56;101380.94;;;14.38;60.13
70909;BME280;58554;52.006;5.926;2022-09-20T00:11:24;101376.78;;;14.34;60.34
70909;BME280;58554;52.006;5.926;2022-09-20T00:13:54;101377.63;;;14.35;60.39
70909;BME280;58554;52.006;5.926;2022-09-20T00:16:24;101379.53;;;14.33;60.35
70909;BME280;58554;52.006;5.926;2022-09-20T00:18:56;101391.13;;;14.32;60.49
70909;BME280;58554;52.006;5.926;2022-09-20T00:21:26;101383.16;;;14.32;60.53
70909;BME280;58554;52.006;5.926;2022-09-20T00:23:54;101386.09;;;14.27;60.50
70909;BME280;58554;52.006;5.926;2022-09-20T00:26:22;101385.34;;;14.25;60.67
70909;BME280;58554;52.006;5.926;2022-09-20T00:28:49;101385.44;;;14.24;60.70
70909;BME280;58554;52.006;5.926;2022-09-20T00:31:16;101379.34;;;14.22;60.96
70909;BME280;58554;52.006;5.926;2022-09-20T00:33:43;101387.34;;;14.22;61.06
70909;BME280;58554;52.006;5.926;2022-09-20T00:36:13;101389.91;;;14.23;60.97
70909;BME280;58554;52.006;5.926;2022-09-20T00:38:40;101392.66;;;14.22;60.94
70909;BME280;58554;52.006;5.926;2022-09-20T00:41:07;101380.28;;;14.21;60.82
70909;BME280;58554;52.006;5.926;2022-09-20T00:43:36;101380.28;;;14.21;60.88
70909;BME280;58554;52.006;5.926;2022-09-20T00:46:04;101382.03;;;14.22;60.87
70909;BME280;58554;52.006;5.926;2022-09-20T00:48:38;101381.16;;;14.21;60.93
70909;BME280;58554;52.006;5.926;2022-09-20T00:51:06;101379.75;;;14.15;60.88
70909;BME280;58554;52.006;5.926;2022-09-20T00:53:42;101376.31;;;14.13;60.94
70909;BME280;58554;52.006;5.926;2022-09-20T00:56:16;101382.56;;;14.12;61.00
70909;BME280;58554;52.006;5.926;2022-09-20T00:58:51;101387.03;;;14.12;61.08
70909;BME280;58554;52.006;5.926;2022-09-20T01:01:25;101388.88;;;14.11;61.17
70909;BME280;58554;52.006;5.926;2022-09-20T01:03:52;101379.91;;;14.12;61.14
70909;BME280;58554;52.006;5.926;2022-09-20T01:06:20;101376.41;;;14.12;61.16
70909;BME280;58554;52.006;5.926;2022-09-20T01:08:50;101372.81;;;14.13;61.16
70909;BME280;58554;52.006;5.926;2022-09-20T01:11:21;101364.84;;;14.13;61.14
70909;BME280;58554;52.006;5.926;2022-09-20T01:13:48;101365.59;;;14.15;61.10
70909;BME280;58554;52.006;5.926;2022-09-20T01:16:15;101368.03;;;14.18;61.03
70909;BME280;58554;52.006;5.926;2022-09-20T01:18:45;101372.31;;;14.21;60.95
70909;BME280;58554;52.006;5.926;2022-09-20T01:21:15;101366.91;;;14.22;60.90
70909;BME280;58554;52.006;5.926;2022-09-20T01:23:54;101374.78;;;14.24;60.93
70909;BME280;58554;52.006;5.926;2022-09-20T01:26:42;101369.28;;;14.27;60.83
70909;BME280;58554;52.006;5.926;2022-09-20T01:29:34;101371.84;;;14.28;60.83
70909;BME280;58554;52.006;5.926;2022-09-20T01:32:10;101383.16;;;14.32;60.72
70909;BME280;58554;52.006;5.926;2022-09-20T01:34:44;101375.94;;;14.34;60.93
70909;BME280;58554;52.006;5.926;2022-09-20T01:37:22;101379.34;;;14.36;60.79
70909;BME280;58554;52.006;5.926;2022-09-20T01:39:59;101374.78;;;14.38;60.70
70909;BME280;58554;52.006;5.926;2022-09-20T01:42:34;101370.31;;;14.38;60.60
70909;BME280;58554;52.006;5.926;2022-09-20T01:45:11;101374.69;;;14.40;60.66
70909;BME280;58554;52.006;5.926;2022-09-20T01:47:51;101378.09;;;14.42;60.58
70909;BME280;58554;52.006;5.926;2022-09-20T01:50:34;101381.63;;;14.42;60.49
70909;BME280;58554;52.006;5.926;2022-09-20T01:53:38;101374.47;;;14.43;60.38
70909;BME280;58554;52.006;5.926;2022-09-20T01:56:53;101374.38;;;14.44;60.50
70909;BME280;58554;52.006;5.926;2022-09-20T02:00:05;101370.75;;;14.45;60.39
70909;BME280;58554;52.006;5.926;2022-09-20T02:02:58;101365.44;;;14.45;60.21
70909;BME280;58554;52.006;5.926;2022-09-20T02:05:52;101363.63;;;14.46;60.36
70909;BME280;58554;52.006;5.926;2022-09-20T02:08:48;101368.94;;;14.46;60.26
70909;BME280;58554;52.006;5.926;2022-09-20T02:11:43;101376.09;;;14.45;60.38
70909;BME280;58554;52.006;5.926;2022-09-20T02:14:30;101373.50;;;14.44;60.15
70909;BME280;58554;52.006;5.926;2022-09-20T02:17:12;101370.97;;;14.42;60.22
70909;BME280;58554;52.006;5.926;2022-09-20T02:19:49;101379.88;;;14.41;60.30
70909;BME280;58554;52.006;5.926;2022-09-20T02:22:37;101375.44;;;14.42;60.22
70909;BME280;58554;52.006;5.926;2022-09-20T02:25:17;101370.00;;;14.43;60.21
70909;BME280;58554;52.006;5.926;2022-09-20T02:28:06;101378.44;;;14.50;60.18
70909;BME280;58554;52.006;5.926;2022-09-20T02:30:50;101372.84;;;14.54;60.24
70909;BME280;58554;52.006;5.926;2022-09-20T02:33:55;101371.88;;;14.55;59.92
70909;BME280;58554;52.006;5.926;2022-09-20T02:36:47;101373.78;;;14.53;60.16
70909;BME280;58554;52.006;5.926;2022-09-20T02:39:30;101367.63;;;14.53;60.06
70909;BME280;58554;52.006;5.926;2022-09-20T02:42:08;101370.28;;;14.53;60.02
70909;BME280;58554;52.006;5.926;2022-09-20T02:44:53;101369.44;;;14.52;60.19
70909;BME280;58554;52.006;5.926;2022-09-20T02:47:32;101376.44;;;14.53;60.13
70909;BME280;58554;52.006;5.926;2022-09-20T02:50:16;101372.84;;;14.54;60.00
70909;BME280;58554;52.006;5.926;2022-09-20T02:53:03;101372.84;;;14.54;59.94
70909;BME280;58554;52.006;5.926;2022-09-20T02:55:45;101376.44;;;14.53;59.98
70909;BME280;58554;52.006;5.926;2022-09-20T02:58:29;101369.22;;;14.55;60.01
70909;BME280;58554;52.006;5.926;2022-09-20T03:01:16;101372.72;;;14.56;60.07
70909;BME280;58554;52.006;5.926;2022-09-20T03:04:01;101372.72;;;14.56;59.91
70909;BME280;58554;52.006;5.926;2022-09-20T03:06:51;101373.69;;;14.55;60.19
70909;BME280;58554;52.006;5.926;2022-09-20T03:09:30;101369.22;;;14.55;59.87
70909;BME280;58554;52.006;5.926;2022-09-20T03:12:13;101374.75;;;14.52;59.79
70909;BME280;58554;52.006;5.926;2022-09-20T03:14:56;101368.69;;;14.50;59.85
70909;BME280;58554;52.006;5.926;2022-09-20T03:17:42;101375.91;;;14.48;59.97
70909;BME280;58554;52.006;5.926;2022-09-20T03:20:25;101366.09;;;14.49;60.04
70909;BME280;58554;52.006;5.926;2022-09-20T03:23:12;101367.16;;;14.46;59.83
70909;BME280;58554;52.006;5.926;2022-09-20T03:25:54;101369.81;;;14.46;59.91
70909;BME280;58554;52.006;5.926;2022-09-20T03:28:40;101364.59;;;14.45;59.82
70909;BME280;58554;52.006;5.926;2022-09-20T03:31:37;101374.56;;;14.41;59.90
70909;BME280;58554;52.006;5.926;2022-09-20T03:34:32;101371.91;;;14.41;59.88
70909;BME280;58554;52.006;5.926;2022-09-20T03:37:35;101373.72;;;14.41;59.64
70909;BME280;58554;52.006;5.926;2022-09-20T03:44:01;101371.16;;;14.39;59.89
70909;BME280;58554;52.006;5.926;2022-09-20T03:46:44;101375.84;;;14.35;60.00
70909;BME280;58554;52.006;5.926;2022-09-20T03:52:49;101385.06;;;14.30;60.21
70909;BME280;58554;52.006;5.926;2022-09-20T03:55:41;101383.31;;;14.29;60.46
70909;BME280;58554;52.006;5.926;2022-09-20T03:58:41;101380.78;;;14.27;60.33
70909;BME280;58554;52.006;5.926;2022-09-20T04:01:56;101377.38;;;14.25;60.39
70909;BME280;58554;52.006;5.926;2022-09-20T04:04:40;101384.47;;;14.25;60.45
70909;BME280;58554;52.006;5.926;2022-09-20T04:07:17;101374.72;;;14.25;60.52
70909;BME280;58554;52.006;5.926;2022-09-20T04:10:15;101389.78;;;14.25;60.63
70909;BME280;58554;52.006;5.926;2022-09-20T04:13:08;101372.91;;;14.26;60.73
70909;BME280;58554;52.006;5.926;2022-09-20T04:15:57;101385.13;;;14.28;60.58
70909;BME280;58554;52.006;5.926;2022-09-20T04:18:37;101379.16;;;14.25;60.67
70909;BME280;58554;52.006;5.926;2022-09-20T04:21:15;101381.81;;;14.25;60.77
70909;BME280;58554;52.006;5.926;2022-09-20T04:23:50;101381.81;;;14.25;60.71
70909;BME280;58554;52.006;5.926;2022-09-20T04:26:25;101380.97;;;14.24;60.78
70909;BME280;58554;52.006;5.926;2022-09-20T04:28:56;101383.63;;;14.24;60.83
70909;BME280;58554;52.006;5.926;2022-09-20T04:31:37;101384.47;;;14.25;60.87
70909;BME280;58554;52.006;5.926;2022-09-20T04:34:12;101382.09;;;14.20;60.88
70909;BME280;58554;52.006;5.926;2022-09-20T04:36:59;101388.47;;;14.17;61.05
70909;BME280;58554;52.006;5.926;2022-09-20T04:39:38;101384.31;;;14.13;61.05
70909;BME280;58554;52.006;5.926;2022-09-20T04:42:41;101396.09;;;14.09;61.03
70909;BME280;58554;52.006;5.926;2022-09-20T04:52:33;101395.31;;;14.07;61.33
70909;BME280;58554;52.006;5.926;2022-09-20T04:55:47;101400.56;;;14.09;61.37
70909;BME280;58554;52.006;5.926;2022-09-20T05:01:49;101400.44;;;14.10;61.43
70909;BME280;58554;52.006;5.926;2022-09-20T05:08:44;101405.97;;;14.07;61.55
70909;BME280;58554;52.006;5.926;2022-09-20T05:11:54;101412.88;;;14.10;61.61
70909;BME280;58554;52.006;5.926;2022-09-20T05:14:50;101411.19;;;14.09;61.64
70909;BME280;58554;52.006;5.926;2022-09-20T05:17:44;101405.75;;;14.10;61.45
70909;BME280;58554;52.006;5.926;2022-09-20T05:20:45;101414.59;;;14.11;61.58
70909;BME280;58554;52.006;5.926;2022-09-20T05:23:39;101410.22;;;14.10;61.40
70909;BME280;58554;52.006;5.926;2022-09-20T05:26:28;101416.59;;;14.07;61.40
70909;BME280;58554;52.006;5.926;2022-09-20T05:29:10;101417.81;;;14.02;61.38
70909;BME280;58554;52.006;5.926;2022-09-20T05:31:48;101413.94;;;13.93;61.31
70909;BME280;58554;52.006;5.926;2022-09-20T05:34:23;101413.72;;;13.82;61.36
70909;BME280;58554;52.006;5.926;2022-09-20T05:37:05;101424.13;;;13.70;61.52
70909;BME280;58554;52.006;5.926;2022-09-20T05:39:41;101424.72;;;13.61;61.60
70909;BME280;58554;52.006;5.926;2022-09-20T05:42:18;101426.44;;;13.46;61.73
70909;BME280;58554;52.006;5.926;2022-09-20T05:44:58;101425.44;;;13.33;62.11
70909;BME280;58554;52.006;5.926;2022-09-20T05:47:50;101433.25;;;13.20;62.21
70909;BME280;58554;52.006;5.926;2022-09-20T05:50:38;101430.47;;;13.07;62.53
70909;BME280;58554;52.006;5.926;2022-09-20T05:53:36;101428.59;;;12.93;62.58
70909;BME280;58554;52.006;5.926;2022-09-20T05:56:41;101427.66;;;12.79;62.52
70909;BME280;58554;52.006;5.926;2022-09-20T06:02:26;101429.00;;;12.54;63.09
70909;BME280;58554;52.006;5.926;2022-09-20T06:05:03;101431.22;;;12.46;63.13
70909;BME280;58554;52.006;5.926;2022-09-20T06:07:57;101437.81;;;12.39;63.56
70909;BME280;58554;52.006;5.926;2022-09-20T06:10:52;101429.41;;;12.30;63.56
70909;BME280;58554;52.006;5.926;2022-09-20T06:13:43;101435.97;;;12.23;63.58
70909;BME280;58554;52.006;5.926;2022-09-20T06:16:29;101436.44;;;12.14;63.64
70909;BME280;58554;52.006;5.926;2022-09-20T06:19:12;101448.31;;;12.07;63.95
70909;BME280;58554;52.006;5.926;2022-09-20T06:21:49;101459.19;;;12.02;64.05
70909;BME280;58554;52.006;5.926;2022-09-20T06:24:31;101453.41;;;11.94;64.30
70909;BME280;58554;52.006;5.926;2022-09-20T06:27:14;101463.38;;;11.89;64.56
70909;BME280;58554;52.006;5.926;2022-09-20T06:29:50;101461.69;;;11.88;64.51
70909;BME280;58554;52.006;5.926;2022-09-20T06:32:22;101458.16;;;11.87;64.63
70909;BME280;58554;52.006;5.926;2022-09-20T06:34:49;101459.88;;;11.88;64.76
70909;BME280;58554;52.006;5.926;2022-09-20T06:37:28;101466.88;;;11.89;64.83
70909;BME280;58554;52.006;5.926;2022-09-20T06:40:22;101462.47;;;11.90;65.00
70909;BME280;58554;52.006;5.926;2022-09-20T06:42:59;101464.09;;;11.92;65.00
70909;BME280;58554;52.006;5.926;2022-09-20T06:45:26;101473.66;;;11.95;65.08
70909;BME280;58554;52.006;5.926;2022-09-20T06:47:52;101465.72;;;11.95;65.12
70909;BME280;58554;52.006;5.926;2022-09-20T06:50:19;101470.94;;;11.96;65.28
70909;BME280;58554;52.006;5.926;2022-09-20T06:52:45;101474.38;;;11.99;65.29
70909;BME280;58554;52.006;5.926;2022-09-20T06:55:17;101472.44;;;12.02;65.25
70909;BME280;58554;52.006;5.926;2022-09-20T06:57:47;101482.00;;;12.05;65.22
70909;BME280;58554;52.006;5.926;2022-09-20T07:00:17;101484.47;;;12.08;65.18
70909;BME280;58554;52.006;5.926;2022-09-20T07:02:43;101493.22;;;12.10;65.26
70909;BME280;58554;52.006;5.926;2022-09-20T07:05:13;101503.16;;;12.06;65.16
70909;BME280;58554;52.006;5.926;2022-09-20T07:07:40;101507.72;;;12.03;65.39
70909;BME280;58554;52.006;5.926;2022-09-20T07:10:08;101517.63;;;11.99;65.64
70909;BME280;58554;52.006;5.926;2022-09-20T07:12:35;101506.50;;;11.92;65.79
70909;BME280;58554;52.006;5.926;2022-09-20T07:15:01;101511.16;;;11.87;66.05
70909;BME280;58554;52.006;5.926;2022-09-20T07:17:31;101506.94;;;11.83;66.12
70909;BME280;58554;52.006;5.926;2022-09-20T07:19:57;101495.56;;;11.81;66.23
70909;BME280;58554;52.006;5.926;2022-09-20T07:22:24;101483.19;;;11.82;66.30
70909;BME280;58554;52.006;5.926;2022-09-20T07:24:50;101481.31;;;11.84;66.58
70909;BME280;58554;52.006;5.926;2022-09-20T07:27:17;101480.13;;;11.89;66.79
70909;BME280;58554;52.006;5.926;2022-09-20T07:29:44;101479.91;;;11.94;66.93
70909;BME280;58554;52.006;5.926;2022-09-20T07:32:11;101478.66;;;12.01;66.85
70909;BME280;58554;52.006;5.926;2022-09-20T07:34:40;101488.78;;;12.10;66.89
70909;BME280;58554;52.006;5.926;2022-09-20T07:37:06;101483.13;;;12.16;66.75
70909;BME280;58554;52.006;5.926;2022-09-20T07:39:32;101497.72;;;12.25;66.99
70909;BME280;58554;52.006;5.926;2022-09-20T07:41:59;101498.13;;;12.35;66.64
70909;BME280;58554;52.006;5.926;2022-09-20T07:44:25;101493.19;;;12.45;66.86
70909;BME280;58554;52.006;5.926;2022-09-20T07:46:53;101498.88;;;12.54;66.64
70909;BME280;58554;52.006;5.926;2022-09-20T07:49:22;101498.53;;;12.61;66.57
70909;BME280;58554;52.006;5.926;2022-09-20T07:51:52;101507.94;;;12.66;66.42
70909;BME280;58554;52.006;5.926;2022-09-20T07:54:19;101502.47;;;12.69;66.32
70909;BME280;58554;52.006;5.926;2022-09-20T07:56:46;101512.25;;;12.69;66.25
70909;BME280;58554;52.006;5.926;2022-09-20T07:59:14;101513.25;;;12.66;66.38
70909;BME280;58554;52.006;5.926;2022-09-20T08:01:41;101519.56;;;12.64;66.39
70909;BME280;58554;52.006;5.926;2022-09-20T08:04:08;101514.44;;;12.61;66.55
70909;BME280;58554;52.006;5.926;2022-09-20T08:06:36;101517.19;;;12.59;66.72
70909;BME280;58554;52.006;5.926;2022-09-20T08:09:07;101518.97;;;12.59;66.81
70909;BME280;58554;52.006;5.926;2022-09-20T08:11:35;101534.13;;;12.56;66.88
70909;BME280;58554;52.006;5.926;2022-09-20T08:14:02;101527.94;;;12.56;67.05
70909;BME280;58554;52.006;5.926;2022-09-20T08:16:30;101528.81;;;12.56;67.08
70909;BME280;58554;52.006;5.926;2022-09-20T08:18:59;101530.53;;;12.57;67.34
70909;BME280;58554;52.006;5.926;2022-09-20T08:21:30;101533.03;;;12.61;67.27
70909;BME280;58554;52.006;5.926;2022-09-20T08:23:59;101539.00;;;12.64;67.14
70909;BME280;58554;52.006;5.926;2022-09-20T08:26:29;101534.41;;;12.68;67.06
70909;BME280;58554;52.006;5.926;2022-09-20T08:28:57;101540.41;;;12.71;66.94
70909;BME280;58554;52.006;5.926;2022-09-20T08:31:26;101532.38;;;12.73;67.14
70909;BME280;58554;52.006;5.926;2022-09-20T08:33:54;101536.56;;;12.77;67.13
70909;BME280;58554;52.006;5.926;2022-09-20T08:36:22;101537.16;;;12.82;67.19
70909;BME280;58554;52.006;5.926;2022-09-20T08:38:51;101538.63;;;12.88;67.23
70909;BME280;58554;52.006;5.926;2022-09-20T08:41:20;101536.41;;;12.96;67.38
70909;BME280;58554;52.006;5.926;2022-09-20T08:43:56;101540.16;;;13.08;67.27
70909;BME280;58554;52.006;5.926;2022-09-20T08:46:30;101547.88;;;13.28;67.26
70909;BME280;58554;52.006;5.926;2022-09-20T08:48:59;101547.78;;;13.46;66.49
70909;BME280;58554;52.006;5.926;2022-09-20T08:51:34;101554.22;;;13.57;66.16
70909;BME280;58554;52.006;5.926;2022-09-20T08:54:05;101555.16;;;13.72;66.04
70909;BME280;58554;52.006;5.926;2022-09-20T08:56:36;101551.84;;;13.83;65.95
70909;BME280;58554;52.006;5.926;2022-09-20T08:59:13;101559.13;;;13.95;65.91
70909;BME280;58554;52.006;5.926;2022-09-20T09:01:41;101554.13;;;14.05;65.66
70909;BME280;58554;52.006;5.926;2022-09-20T09:04:12;101558.78;;;14.16;65.55
70909;BME280;58554;52.006;5.926;2022-09-20T09:06:40;101552.06;;;14.25;65.47
70909;BME280;58554;52.006;5.926;2022-09-20T09:09:13;101545.44;;;14.32;65.23
70909;BME280;58554;52.006;5.926;2022-09-20T09:11:44;101550.94;;;14.43;65.23
70909;BME280;58554;52.006;5.926;2022-09-20T09:14:23;101551.03;;;14.56;65.07
70909;BME280;58554;52.006;5.926;2022-09-20T09:16:51;101553.91;;;14.67;64.89
70909;BME280;58554;52.006;5.926;2022-09-20T09:19:25;101551.38;;;14.80;64.39
70909;BME280;58554;52.006;5.926;2022-09-20T09:21:56;101551.94;;;14.85;64.06
70909;BME280;58554;52.006;5.926;2022-09-20T09:24:24;101549.94;;;14.89;63.74
70909;BME280;58554;52.006;5.926;2022-09-20T09:27:04;101559.25;;;14.96;63.63
70909;BME280;58554;52.006;5.926;2022-09-20T09:29:35;101552.66;;;15.02;63.60
70909;BME280;58554;52.006;5.926;2022-09-20T09:32:20;101552.09;;;15.11;63.42
70909;BME280;58554;52.006;5.926;2022-09-20T09:34:49;101553.31;;;15.19;63.10
70909;BME280;58554;52.006;5.926;2022-09-20T09:37:24;101551.94;;;15.27;62.87
70909;BME280;58554;52.006;5.926;2022-09-20T09:40:12;101542.06;;;15.29;62.67
70909;BME280;58554;52.006;5.926;2022-09-20T09:42:48;101533.78;;;15.33;62.65
70909;BME280;58554;52.006;5.926;2022-09-20T09:45:30;101537.00;;;15.38;62.32
70909;BME280;58554;52.006;5.926;2022-09-20T09:47:59;101532.63;;;15.37;62.14
70909;BME280;58554;52.006;5.926;2022-09-20T09:50:29;101535.16;;;15.39;62.19
70909;BME280;58554;52.006;5.926;2022-09-20T09:52:59;101544.03;;;15.39;61.89
70909;BME280;58554;52.006;5.926;2022-09-20T09:55:37;101542.09;;;15.42;61.94
70909;BME280;58554;52.006;5.926;2022-09-20T09:58:42;101543.44;;;15.49;61.41
70909;BME280;58554;52.006;5.926;2022-09-20T10:01:29;101547.50;;;15.54;61.01
70909;BME280;58554;52.006;5.926;2022-09-20T10:04:08;101545.47;;;15.58;61.04
70909;BME280;58554;52.006;5.926;2022-09-20T10:06:49;101544.53;;;15.59;60.83
70909;BME280;58554;52.006;5.926;2022-09-20T10:09:34;101548.81;;;15.62;60.33
70909;BME280;58554;52.006;5.926;2022-09-20T10:12:27;101544.66;;;15.70;60.42
70909;BME280;58554;52.006;5.926;2022-09-20T10:15:19;101535.78;;;15.84;60.02
70909;BME280;58554;52.006;5.926;2022-09-20T10:18:07;101533.97;;;15.97;60.08
70909;BME280;58554;52.006;5.926;2022-09-20T10:20:54;101535.41;;;16.16;59.98
70909;BME280;58554;52.006;5.926;2022-09-20T10:23:43;101543.22;;;16.32;58.99
70909;BME280;58554;52.006;5.926;2022-09-20T10:26:30;101535.72;;;16.37;57.57
70909;BME280;58554;52.006;5.926;2022-09-20T10:29:15;101532.97;;;16.38;57.25
70909;BME280;58554;52.006;5.926;2022-09-20T10:31:58;101532.84;;;16.40;57.36
70909;BME280;58554;52.006;5.926;2022-09-20T10:34:59;101531.69;;;16.44;56.39
70909;BME280;58554;52.006;5.926;2022-09-20T10:37:45;101533.94;;;16.50;56.28
70909;BME280;58554;52.006;5.926;2022-09-20T10:40:27;101529.66;;;16.60;56.19
70909;BME280;58554;52.006;5.926;2022-09-20T10:43:10;101532.50;;;16.70;55.61
70909;BME280;58554;52.006;5.926;2022-09-20T10:46:01;101525.13;;;16.74;55.28
70909;BME280;58554;52.006;5.926;2022-09-20T10:48:40;101529.38;;;16.76;55.13
70909;BME280;58554;52.006;5.926;2022-09-20T10:51:20;101526.63;;;16.78;54.94
70909;BME280;58554;52.006;5.926;2022-09-20T10:54:04;101538.72;;;16.84;54.52
70909;BME280;58554;52.006;5.926;2022-09-20T10:56:43;101532.31;;;16.86;54.26
70909;BME280;58554;52.006;5.926;2022-09-20T10:59:31;101536.56;;;16.89;52.91
70909;BME280;58554;52.006;5.926;2022-09-20T11:02:28;101537.41;;;16.89;53.10
70909;BME280;58554;52.006;5.926;2022-09-20T11:08:11;101545.22;;;16.92;53.78
70909;BME280;58554;52.006;5.926;2022-09-20T11:10:44;101546.72;;;16.96;53.75
70909;BME280;58554;52.006;5.926;2022-09-20T11:13:23;101547.97;;;17.04;53.51
70909;BME280;58554;52.006;5.926;2022-09-20T11:15:59;101540.69;;;17.06;53.53
70909;BME280;58554;52.006;5.926;2022-09-20T11:18:35;101538.00;;;17.06;53.41
70909;BME280;58554;52.006;5.926;2022-09-20T11:21:10;101535.13;;;17.09;53.31
70909;BME280;58554;52.006;5.926;2022-09-20T11:23:51;101539.28;;;17.13;53.04
70909;BME280;58554;52.006;5.926;2022-09-20T11:26:29;101533.22;;;17.11;53.15
70909;BME280;58554;52.006;5.926;2022-09-20T11:29:09;101542.81;;;17.13;53.26
70909;BME280;58554;52.006;5.926;2022-09-20T11:31:45;101548.16;;;17.13;53.33
70909;BME280;58554;52.006;5.926;2022-09-20T11:34:20;101543.75;;;17.12;53.15
70909;BME280;58554;52.006;5.926;2022-09-20T11:36:53;101553.59;;;17.12;52.78
70909;BME280;58554;52.006;5.926;2022-09-20T11:39:28;101551.28;;;17.07;52.48
70909;BME280;58554;52.006;5.926;2022-09-20T11:42:03;101542.00;;;17.00;52.40
70909;BME280;58554;52.006;5.926;2022-09-20T11:44:34;101545.13;;;16.94;52.74
70909;BME280;58554;52.006;5.926;2022-09-20T11:47:08;101553.44;;;16.89;53.07
70909;BME280;58554;52.006;5.926;2022-09-20T11:49:51;101547.03;;;16.92;53.21
70909;BME280;58554;52.006;5.926;2022-09-20T11:52:45;101547.44;;;16.98;53.09
70909;BME280;58554;52.006;5.926;2022-09-20T11:55:39;101549.69;;;17.05;52.91
70909;BME280;58554;52.006;5.926;2022-09-20T11:58:14;101541.53;;;17.06;52.75
70909;BME280;58554;52.006;5.926;2022-09-20T12:00:44;101542.50;;;17.05;52.63
70909;BME280;58554;52.006;5.926;2022-09-20T12:03:28;101553.44;;;17.02;52.15
70909;BME280;58554;52.006;5.926;2022-09-20T12:06:00;101546.72;;;16.96;52.16
70909;BME280;58554;52.006;5.926;2022-09-20T12:08:31;101546.91;;;16.93;52.14
70909;BME280;58554;52.006;5.926;2022-09-20T12:11:07;101547.91;;;16.92;51.72
70909;BME280;58554;52.006;5.926;2022-09-20T12:13:38;101549.81;;;16.90;52.06
70909;BME280;58554;52.006;5.926;2022-09-20T12:16:11;101538.38;;;16.88;51.98
70909;BME280;58554;52.006;5.926;2022-09-20T12:19:00;101537.31;;;16.91;51.40
70909;BME280;58554;52.006;5.926;2022-09-20T12:21:28;101528.97;;;16.95;51.97
70909;BME280;58554;52.006;5.926;2022-09-20T12:24:16;101530.63;;;17.09;51.25
70909;BME280;58554;52.006;5.926;2022-09-20T12:26:49;101532.75;;;17.17;51.32
70909;BME280;58554;52.006;5.926;2022-09-20T12:32:54;101532.66;;;17.06;50.97
70909;BME280;58554;52.006;5.926;2022-09-20T12:38:56;101544.91;;;16.84;51.87
70909;BME280;58554;52.006;5.926;2022-09-20T12:41:25;101545.41;;;16.76;52.04
70909;BME280;58554;52.006;5.926;2022-09-20T12:44:02;101538.50;;;16.74;51.84
70909;BME280;58554;52.006;5.926;2022-09-20T12:46:51;101534.00;;;16.74;52.12
70909;BME280;58554;52.006;5.926;2022-09-20T12:49:34;101543.59;;;16.77;51.86
70909;BME280;58554;52.006;5.926;2022-09-20T12:52:20;101533.25;;;16.85;52.02
70909;BME280;58554;52.006;5.926;2022-09-20T12:54:51;101529.09;;;16.94;52.07
70909;BME280;58554;52.006;5.926;2022-09-20T12:57:26;101534.41;;;17.07;51.87
70909;BME280;58554;52.006;5.926;2022-09-20T12:59:59;101541.63;;;17.17;51.81
70909;BME280;58554;52.006;5.926;2022-09-20T13:02:55;101535.72;;;17.25;51.23
70909;BME280;58554;52.006;5.926;2022-09-20T13:05:33;101537.06;;;17.31;51.37
70909;BME280;58554;52.006;5.926;2022-09-20T13:08:09;101530.53;;;17.35;51.44
70909;BME280;58554;52.006;5.926;2022-09-20T13:10:44;101534.69;;;17.39;51.16
70909;BME280;58554;52.006;5.926;2022-09-20T13:13:30;101538.84;;;17.43;51.13
70909;BME280;58554;52.006;5.926;2022-09-20T13:16:04;101538.09;;;17.41;50.84
70909;BME280;58554;52.006;5.926;2022-09-20T13:18:33;101532.47;;;17.33;50.89
70909;BME280;58554;52.006;5.926;2022-09-20T13:21:02;101543.94;;;17.22;50.76
70909;BME280;58554;52.006;5.926;2022-09-20T13:23:43;101550.72;;;17.15;50.80
70909;BME280;58554;52.006;5.926;2022-09-20T13:26:15;101555.53;;;17.10;51.36
70909;BME280;58554;52.006;5.926;2022-09-20T13:28:52;101554.38;;;17.01;51.49
70909;BME280;58554;52.006;5.926;2022-09-20T13:31:30;101551.50;;;16.91;51.65
70909;BME280;58554;52.006;5.926;2022-09-20T13:34:19;101562.53;;;16.87;51.80
70909;BME280;58554;52.006;5.926;2022-09-20T13:36:48;101553.09;;;16.81;51.98
70909;BME280;58554;52.006;5.926;2022-09-20T13:39:26;101557.09;;;16.75;52.01
70909;BME280;58554;52.006;5.926;2022-09-20T13:42:01;101554.75;;;16.71;51.86
70909;BME280;58554;52.006;5.926;2022-09-20T13:44:33;101544.16;;;16.69;52.15
70909;BME280;58554;52.006;5.926;2022-09-20T13:47:20;101545.09;;;16.68;52.27
70909;BME280;58554;52.006;5.926;2022-09-20T13:49:47;101552.06;;;16.71;52.34
70909;BME280;58554;52.006;5.926;2022-09-20T13:52:21;101554.50;;;16.74;52.38
70909;BME280;58554;52.006;5.926;2022-09-20T13:54:50;101553.22;;;16.79;52.47
70909;BME280;58554;52.006;5.926;2022-09-20T13:57:20;101551.31;;;16.82;52.33
70909;BME280;58554;52.006;5.926;2022-09-20T13:59:51;101551.31;;;16.82;52.32
70909;BME280;58554;52.006;5.926;2022-09-20T14:02:25;101555.03;;;16.79;52.40
70909;BME280;58554;52.006;5.926;2022-09-20T14:04:56;101548.00;;;16.78;52.51
70909;BME280;58554;52.006;5.926;2022-09-20T14:07:25;101551.41;;;16.80;52.59
70909;BME280;58554;52.006;5.926;2022-09-20T14:09:54;101548.53;;;16.83;52.47
70909;BME280;58554;52.006;5.926;2022-09-20T14:12:23;101550.25;;;16.84;52.36
70909;BME280;58554;52.006;5.926;2022-09-20T14:14:52;101541.41;;;16.84;52.08
70909;BME280;58554;52.006;5.926;2022-09-20T14:17:23;101533.38;;;16.84;52.11
70909;BME280;58554;52.006;5.926;2022-09-20T14:19:52;101534.88;;;16.88;52.13
70909;BME280;58554;52.006;5.926;2022-09-20T14:22:23;101540.72;;;16.93;52.03